sensor_id;sensor_type;location;lat;lon;timestamp;P1;durP1;ratioP1;P2;durP2;ratioP2
40170;SDS011;37650;52.790;18.268;2023-04-25T00:00:00;7.70;;;5.90;;
40170;SDS011;37650;52.790;18.268;2023-04-25T00:03:41;6.90;;;5.10;;
40170;SDS011;37650;52.790;18.268;2023-04-25T00:07:02;7.70;;;5.00;;
40170;SDS011;37650;52.790;18.268;2023-04-25T00:10:23;8.50;;;5.30;;
40170;SDS011;37650;52.790;18.268;2023-04-25T00:13:45;8.80;;;5.70;;
40170;SDS011;37650;52.790;18.268;2023-04-25T00:17:06;10.30;;;6.10;;
40170;SDS011;37650;52.790;18.268;2023-04-25T00:20:28;11.40;;;6.90;;
40170;SDS011;37650;52.790;18.268;2023-04-25T00:23:52;9.70;;;6.20;;
40170;SDS011;37650;52.790;18.268;2023-04-25T00:27:14;8.00;;;5.10;;
40170;SDS011;37650;52.790;18.268;2023-04-25T00:30:35;8.30;;;4.50;;
40170;SDS011;37650;52.790;18.268;2023-04-25T00:33:57;7.30;;;4.60;;
40170;SDS011;37650;52.790;18.268;2023-04-25T00:37:18;6.30;;;4.30;;
40170;SDS011;37650;52.790;18.268;2023-04-25T00:40:40;5.70;;;4.20;;
40170;SDS011;37650;52.790;18.268;2023-04-25T00:44:04;5.10;;;3.50;;
40170;SDS011;37650;52.790;18.268;2023-04-25T00:47:28;9.40;;;4.20;;
40170;SDS011;37650;52.790;18.268;2023-04-25T00:50:53;4.90;;;3.60;;
40170;SDS011;37650;52.790;18.268;2023-04-25T00:54:15;5.40;;;3.90;;
40170;SDS011;37650;52.790;18.268;2023-04-25T00:57:36;7.50;;;3.90;;
40170;SDS011;37650;52.790;18.268;2023-04-25T01:00:58;4.90;;;3.20;;
40170;SDS011;37650;52.790;18.268;2023-04-25T01:04:21;6.50;;;3.40;;
40170;SDS011;37650;52.790;18.268;2023-04-25T01:07:42;5.10;;;3.50;;
40170;SDS011;37650;52.790;18.268;2023-04-25T01:11:03;6.70;;;3.80;;
40170;SDS011;37650;52.790;18.268;2023-04-25T01:14:25;5.10;;;3.10;;
40170;SDS011;37650;52.790;18.268;2023-04-25T01:17:47;7.10;;;3.50;;
40170;SDS011;37650;52.790;18.268;2023-04-25T01:21:10;3.90;;;2.80;;
40170;SDS011;37650;52.790;18.268;2023-04-25T01:24:33;5.10;;;2.90;;
40170;SDS011;37650;52.790;18.268;2023-04-25T01:27:55;6.30;;;3.10;;
40170;SDS011;37650;52.790;18.268;2023-04-25T01:31:17;7.80;;;3.10;;
40170;SDS011;37650;52.790;18.268;2023-04-25T01:34:39;4.00;;;2.80;;
40170;SDS011;37650;52.790;18.268;2023-04-25T01:38:00;4.20;;;2.80;;
40170;SDS011;37650;52.790;18.268;2023-04-25T01:41:21;4.60;;;2.70;;
40170;SDS011;37650;52.790;18.268;2023-04-25T01:44:44;3.80;;;2.40;;
40170;SDS011;37650;52.790;18.268;2023-04-25T01:48:06;5.00;;;2.40;;
40170;SDS011;37650;52.790;18.268;2023-04-25T01:54:49;3.70;;;2.20;;
40170;SDS011;37650;52.790;18.268;2023-04-25T01:58:12;5.80;;;2.20;;
40170;SDS011;37650;52.790;18.268;2023-04-25T02:02:05;3.60;;;2.20;;
40170;SDS011;37650;52.790;18.268;2023-04-25T02:05:27;4.90;;;2.30;;
40170;SDS011;37650;52.790;18.268;2023-04-25T02:12:11;4.10;;;2.00;;
40170;SDS011;37650;52.790;18.268;2023-04-25T02:15:55;3.90;;;2.00;;
40170;SDS011;37650;52.790;18.268;2023-04-25T02:19:15;5.40;;;2.10;;
40170;SDS011;37650;52.790;18.268;2023-04-25T02:22:37;3.80;;;1.90;;
40170;SDS011;37650;52.790;18.268;2023-04-25T02:26:00;4.00;;;2.00;;
40170;SDS011;37650;52.790;18.268;2023-04-25T02:29:21;4.20;;;1.50;;
40170;SDS011;37650;52.790;18.268;2023-04-25T02:32:42;3.00;;;1.70;;
40170;SDS011;37650;52.790;18.268;2023-04-25T02:36:03;3.10;;;1.80;;
40170;SDS011;37650;52.790;18.268;2023-04-25T02:39:24;2.90;;;1.30;;
40170;SDS011;37650;52.790;18.268;2023-04-25T02:42:47;2.80;;;1.30;;
40170;SDS011;37650;52.790;18.268;2023-04-25T02:46:09;2.10;;;1.20;;
40170;SDS011;37650;52.790;18.268;2023-04-25T02:49:31;7.80;;;1.50;;
40170;SDS011;37650;52.790;18.268;2023-04-25T02:52:52;4.10;;;1.30;;
40170;SDS011;37650;52.790;18.268;2023-04-25T02:56:19;2.30;;;1.30;;
40170;SDS011;37650;52.790;18.268;2023-04-25T02:59:40;1.60;;;1.00;;
40170;SDS011;37650;52.790;18.268;2023-04-25T03:03:01;2.70;;;1.50;;
40170;SDS011;37650;52.790;18.268;2023-04-25T03:06:23;3.70;;;1.40;;
40170;SDS011;37650;52.790;18.268;2023-04-25T03:09:44;5.90;;;2.10;;
40170;SDS011;37650;52.790;18.268;2023-04-25T03:13:06;2.20;;;1.30;;
40170;SDS011;37650;52.790;18.268;2023-04-25T03:16:27;3.70;;;1.40;;
40170;SDS011;37650;52.790;18.268;2023-04-25T03:19:48;1.70;;;1.00;;
40170;SDS011;37650;52.790;18.268;2023-04-25T03:23:09;2.70;;;1.40;;
40170;SDS011;37650;52.790;18.268;2023-04-25T03:26:31;5.00;;;1.60;;
40170;SDS011;37650;52.790;18.268;2023-04-25T03:29:52;4.10;;;1.20;;
40170;SDS011;37650;52.790;18.268;2023-04-25T03:33:14;1.90;;;1.10;;
40170;SDS011;37650;52.790;18.268;2023-04-25T03:36:35;4.30;;;1.30;;
40170;SDS011;37650;52.790;18.268;2023-04-25T03:39:56;2.70;;;1.50;;
40170;SDS011;37650;52.790;18.268;2023-04-25T03:43:19;3.60;;;1.90;;
40170;SDS011;37650;52.790;18.268;2023-04-25T03:46:50;4.90;;;2.60;;
40170;SDS011;37650;52.790;18.268;2023-04-25T03:50:12;3.70;;;1.50;;
40170;SDS011;37650;52.790;18.268;2023-04-25T03:53:33;5.20;;;1.60;;
40170;SDS011;37650;52.790;18.268;2023-04-25T03:57:09;3.10;;;1.70;;
40170;SDS011;37650;52.790;18.268;2023-04-25T04:00:33;2.30;;;1.30;;
40170;SDS011;37650;52.790;18.268;2023-04-25T04:03:55;5.10;;;1.60;;
40170;SDS011;37650;52.790;18.268;2023-04-25T04:07:16;2.90;;;1.70;;
40170;SDS011;37650;52.790;18.268;2023-04-25T04:10:43;5.00;;;2.20;;
40170;SDS011;37650;52.790;18.268;2023-04-25T04:14:05;4.20;;;1.70;;
40170;SDS011;37650;52.790;18.268;2023-04-25T04:17:28;2.50;;;1.50;;
40170;SDS011;37650;52.790;18.268;2023-04-25T04:20:49;3.50;;;1.90;;
40170;SDS011;37650;52.790;18.268;2023-04-25T04:24:11;2.90;;;1.50;;
40170;SDS011;37650;52.790;18.268;2023-04-25T04:31:21;2.80;;;1.60;;
40170;SDS011;37650;52.790;18.268;2023-04-25T04:34:42;3.30;;;1.30;;
40170;SDS011;37650;52.790;18.268;2023-04-25T04:38:06;3.00;;;1.20;;
40170;SDS011;37650;52.790;18.268;2023-04-25T04:41:28;2.50;;;1.40;;
40170;SDS011;37650;52.790;18.268;2023-04-25T04:45:10;4.10;;;1.60;;
40170;SDS011;37650;52.790;18.268;2023-04-25T04:48:49;3.60;;;1.60;;
40170;SDS011;37650;52.790;18.268;2023-04-25T04:52:32;5.40;;;2.10;;
40170;SDS011;37650;52.790;18.268;2023-04-25T04:55:58;3.80;;;1.90;;
40170;SDS011;37650;52.790;18.268;2023-04-25T04:59:30;3.40;;;1.70;;
40170;SDS011;37650;52.790;18.268;2023-04-25T05:03:01;6.10;;;2.10;;
40170;SDS011;37650;52.790;18.268;2023-04-25T05:06:55;3.90;;;1.60;;
40170;SDS011;37650;52.790;18.268;2023-04-25T05:10:39;5.60;;;1.70;;
40170;SDS011;37650;52.790;18.268;2023-04-25T05:14:17;3.50;;;1.90;;
40170;SDS011;37650;52.790;18.268;2023-04-25T05:17:44;5.60;;;2.00;;
40170;SDS011;37650;52.790;18.268;2023-04-25T05:21:31;4.20;;;1.90;;
40170;SDS011;37650;52.790;18.268;2023-04-25T05:25:17;3.70;;;2.20;;
40170;SDS011;37650;52.790;18.268;2023-04-25T05:28:49;5.10;;;2.60;;
40170;SDS011;37650;52.790;18.268;2023-04-25T05:36:40;3.40;;;1.70;;
40170;SDS011;37650;52.790;18.268;2023-04-25T05:40:01;4.60;;;1.60;;
40170;SDS011;37650;52.790;18.268;2023-04-25T05:43:36;5.00;;;2.40;;
40170;SDS011;37650;52.790;18.268;2023-04-25T05:47:16;4.30;;;2.40;;
40170;SDS011;37650;52.790;18.268;2023-04-25T05:50:52;5.70;;;2.40;;
40170;SDS011;37650;52.790;18.268;2023-04-25T05:54:41;5.30;;;2.40;;
40170;SDS011;37650;52.790;18.268;2023-04-25T05:58:02;3.90;;;1.80;;
40170;SDS011;37650;52.790;18.268;2023-04-25T06:01:38;5.00;;;2.60;;
40170;SDS011;37650;52.790;18.268;2023-04-25T06:05:02;6.80;;;2.50;;
40170;SDS011;37650;52.790;18.268;2023-04-25T06:08:38;4.60;;;2.50;;
40170;SDS011;37650;52.790;18.268;2023-04-25T06:11:59;5.30;;;2.50;;
40170;SDS011;37650;52.790;18.268;2023-04-25T06:18:43;5.80;;;3.00;;
40170;SDS011;37650;52.790;18.268;2023-04-25T06:22:04;6.90;;;2.70;;
40170;SDS011;37650;52.790;18.268;2023-04-25T06:25:27;6.70;;;2.80;;
40170;SDS011;37650;52.790;18.268;2023-04-25T06:28:48;4.20;;;2.70;;
40170;SDS011;37650;52.790;18.268;2023-04-25T06:32:10;5.20;;;2.80;;
40170;SDS011;37650;52.790;18.268;2023-04-25T06:35:31;6.80;;;3.10;;
40170;SDS011;37650;52.790;18.268;2023-04-25T06:38:53;5.00;;;3.00;;
40170;SDS011;37650;52.790;18.268;2023-04-25T06:42:33;6.10;;;2.90;;
40170;SDS011;37650;52.790;18.268;2023-04-25T06:46:14;5.00;;;2.50;;
40170;SDS011;37650;52.790;18.268;2023-04-25T06:49:38;5.30;;;3.10;;
40170;SDS011;37650;52.790;18.268;2023-04-25T06:53:00;5.70;;;3.00;;
40170;SDS011;37650;52.790;18.268;2023-04-25T06:56:23;6.70;;;4.20;;
40170;SDS011;37650;52.790;18.268;2023-04-25T06:59:54;7.30;;;3.90;;
40170;SDS011;37650;52.790;18.268;2023-04-25T07:03:17;6.50;;;3.10;;
40170;SDS011;37650;52.790;18.268;2023-04-25T07:06:38;9.20;;;5.10;;
40170;SDS011;37650;52.790;18.268;2023-04-25T07:10:03;9.80;;;6.30;;
40170;SDS011;37650;52.790;18.268;2023-04-25T07:13:26;8.70;;;6.20;;
40170;SDS011;37650;52.790;18.268;2023-04-25T07:16:47;7.30;;;5.00;;
40170;SDS011;37650;52.790;18.268;2023-04-25T07:20:08;7.40;;;5.20;;
40170;SDS011;37650;52.790;18.268;2023-04-25T07:23:31;9.20;;;7.10;;
40170;SDS011;37650;52.790;18.268;2023-04-25T07:26:53;9.00;;;6.70;;
40170;SDS011;37650;52.790;18.268;2023-04-25T07:30:18;10.70;;;8.50;;
40170;SDS011;37650;52.790;18.268;2023-04-25T07:33:39;6.50;;;4.00;;
40170;SDS011;37650;52.790;18.268;2023-04-25T07:37:01;5.30;;;3.60;;
40170;SDS011;37650;52.790;18.268;2023-04-25T07:40:27;7.70;;;5.30;;
40170;SDS011;37650;52.790;18.268;2023-04-25T07:43:52;4.20;;;2.90;;
40170;SDS011;37650;52.790;18.268;2023-04-25T07:47:13;7.60;;;3.90;;
40170;SDS011;37650;52.790;18.268;2023-04-25T07:50:35;6.50;;;4.10;;
40170;SDS011;37650;52.790;18.268;2023-04-25T07:53:55;10.40;;;5.20;;
40170;SDS011;37650;52.790;18.268;2023-04-25T07:57:17;6.50;;;5.10;;
40170;SDS011;37650;52.790;18.268;2023-04-25T08:00:39;9.50;;;7.10;;
40170;SDS011;37650;52.790;18.268;2023-04-25T08:04:15;7.00;;;4.70;;
40170;SDS011;37650;52.790;18.268;2023-04-25T08:07:50;9.50;;;7.60;;
40170;SDS011;37650;52.790;18.268;2023-04-25T08:11:11;9.00;;;5.70;;
40170;SDS011;37650;52.790;18.268;2023-04-25T08:14:32;6.80;;;5.30;;
40170;SDS011;37650;52.790;18.268;2023-04-25T08:17:57;8.00;;;6.20;;
40170;SDS011;37650;52.790;18.268;2023-04-25T08:21:18;7.80;;;6.00;;
40170;SDS011;37650;52.790;18.268;2023-04-25T08:24:40;7.50;;;4.20;;
40170;SDS011;37650;52.790;18.268;2023-04-25T08:28:02;5.30;;;3.30;;
40170;SDS011;37650;52.790;18.268;2023-04-25T08:31:24;5.40;;;3.10;;
40170;SDS011;37650;52.790;18.268;2023-04-25T08:34:52;5.50;;;3.00;;
40170;SDS011;37650;52.790;18.268;2023-04-25T08:38:15;6.70;;;2.80;;
40170;SDS011;37650;52.790;18.268;2023-04-25T08:41:36;5.90;;;3.30;;
40170;SDS011;37650;52.790;18.268;2023-04-25T08:48:23;4.80;;;3.40;;
40170;SDS011;37650;52.790;18.268;2023-04-25T08:51:47;6.70;;;3.60;;
40170;SDS011;37650;52.790;18.268;2023-04-25T08:55:12;7.50;;;3.80;;
40170;SDS011;37650;52.790;18.268;2023-04-25T08:58:35;8.50;;;3.60;;
40170;SDS011;37650;52.790;18.268;2023-04-25T09:01:58;5.30;;;3.50;;
40170;SDS011;37650;52.790;18.268;2023-04-25T09:05:19;4.90;;;2.90;;
40170;SDS011;37650;52.790;18.268;2023-04-25T09:08:40;4.20;;;2.20;;
40170;SDS011;37650;52.790;18.268;2023-04-25T09:12:02;4.20;;;2.30;;
40170;SDS011;37650;52.790;18.268;2023-04-25T09:18:45;3.90;;;2.50;;
40170;SDS011;37650;52.790;18.268;2023-04-25T09:22:08;5.80;;;1.90;;
40170;SDS011;37650;52.790;18.268;2023-04-25T09:25:33;5.70;;;2.30;;
40170;SDS011;37650;52.790;18.268;2023-04-25T09:29:06;8.50;;;3.00;;
40170;SDS011;37650;52.790;18.268;2023-04-25T09:32:29;4.20;;;2.30;;
40170;SDS011;37650;52.790;18.268;2023-04-25T09:35:51;5.20;;;2.60;;
40170;SDS011;37650;52.790;18.268;2023-04-25T09:39:22;6.90;;;3.10;;
40170;SDS011;37650;52.790;18.268;2023-04-25T09:42:52;5.40;;;3.10;;
40170;SDS011;37650;52.790;18.268;2023-04-25T09:46:13;8.40;;;3.10;;
40170;SDS011;37650;52.790;18.268;2023-04-25T09:49:39;11.60;;;3.20;;
40170;SDS011;37650;52.790;18.268;2023-04-25T09:53:05;5.90;;;2.90;;
40170;SDS011;37650;52.790;18.268;2023-04-25T09:56:48;9.40;;;2.90;;
40170;SDS011;37650;52.790;18.268;2023-04-25T10:00:12;7.90;;;3.50;;
40170;SDS011;37650;52.790;18.268;2023-04-25T10:03:37;5.40;;;2.80;;
40170;SDS011;37650;52.790;18.268;2023-04-25T10:07:20;6.80;;;2.80;;
40170;SDS011;37650;52.790;18.268;2023-04-25T10:10:49;5.70;;;3.50;;
40170;SDS011;37650;52.790;18.268;2023-04-25T10:14:11;7.20;;;3.60;;
40170;SDS011;37650;52.790;18.268;2023-04-25T10:17:33;6.10;;;3.60;;
40170;SDS011;37650;52.790;18.268;2023-04-25T10:20:56;6.10;;;3.50;;
40170;SDS011;37650;52.790;18.268;2023-04-25T10:24:20;6.80;;;3.80;;
40170;SDS011;37650;52.790;18.268;2023-04-25T10:27:41;12.80;;;7.50;;
40170;SDS011;37650;52.790;18.268;2023-04-25T10:31:07;5.40;;;2.60;;
40170;SDS011;37650;52.790;18.268;2023-04-25T10:34:44;7.00;;;3.30;;
40170;SDS011;37650;52.790;18.268;2023-04-25T10:38:09;6.00;;;3.20;;
40170;SDS011;37650;52.790;18.268;2023-04-25T10:41:45;13.40;;;8.20;;
40170;SDS011;37650;52.790;18.268;2023-04-25T10:45:13;31.10;;;16.00;;
40170;SDS011;37650;52.790;18.268;2023-04-25T10:48:35;5.70;;;3.20;;
40170;SDS011;37650;52.790;18.268;2023-04-25T10:52:16;10.80;;;5.60;;
40170;SDS011;37650;52.790;18.268;2023-04-25T10:59:10;33.20;;;14.90;;
40170;SDS011;37650;52.790;18.268;2023-04-25T11:02:36;46.00;;;19.80;;
40170;SDS011;37650;52.790;18.268;2023-04-25T11:06:22;34.50;;;14.50;;
40170;SDS011;37650;52.790;18.268;2023-04-25T11:10:01;6.10;;;2.00;;
40170;SDS011;37650;52.790;18.268;2023-04-25T11:13:28;6.10;;;2.30;;
40170;SDS011;37650;52.790;18.268;2023-04-25T11:16:54;6.10;;;2.40;;
40170;SDS011;37650;52.790;18.268;2023-04-25T11:20:18;14.30;;;6.50;;
40170;SDS011;37650;52.790;18.268;2023-04-25T11:23:44;7.80;;;3.80;;
40170;SDS011;37650;52.790;18.268;2023-04-25T11:27:07;18.80;;;7.40;;
40170;SDS011;37650;52.790;18.268;2023-04-25T11:30:29;9.10;;;4.10;;
40170;SDS011;37650;52.790;18.268;2023-04-25T11:33:52;7.50;;;3.10;;
40170;SDS011;37650;52.790;18.268;2023-04-25T11:37:17;5.00;;;2.60;;
40170;SDS011;37650;52.790;18.268;2023-04-25T11:40:38;12.70;;;5.70;;
40170;SDS011;37650;52.790;18.268;2023-04-25T11:43:59;7.30;;;4.00;;
40170;SDS011;37650;52.790;18.268;2023-04-25T11:47:27;13.00;;;5.90;;
40170;SDS011;37650;52.790;18.268;2023-04-25T11:50:50;8.00;;;3.60;;
40170;SDS011;37650;52.790;18.268;2023-04-25T11:54:12;6.70;;;3.30;;
40170;SDS011;37650;52.790;18.268;2023-04-25T11:57:34;6.10;;;3.50;;
40170;SDS011;37650;52.790;18.268;2023-04-25T12:00:55;5.50;;;2.30;;
40170;SDS011;37650;52.790;18.268;2023-04-25T12:04:20;7.10;;;2.40;;
40170;SDS011;37650;52.790;18.268;2023-04-25T12:07:42;11.80;;;4.40;;
40170;SDS011;37650;52.790;18.268;2023-04-25T12:11:04;12.90;;;8.70;;
40170;SDS011;37650;52.790;18.268;2023-04-25T12:14:28;7.00;;;3.50;;
40170;SDS011;37650;52.790;18.268;2023-04-25T12:17:52;6.00;;;2.20;;
40170;SDS011;37650;52.790;18.268;2023-04-25T12:21:15;4.20;;;1.70;;
40170;SDS011;37650;52.790;18.268;2023-04-25T12:24:36;3.90;;;2.20;;
40170;SDS011;37650;52.790;18.268;2023-04-25T12:28:19;3.50;;;2.10;;
40170;SDS011;37650;52.790;18.268;2023-04-25T12:35:01;4.30;;;2.40;;
40170;SDS011;37650;52.790;18.268;2023-04-25T12:41:46;5.30;;;2.70;;
40170;SDS011;37650;52.790;18.268;2023-04-25T12:45:08;6.60;;;2.30;;
40170;SDS011;37650;52.790;18.268;2023-04-25T12:48:29;4.90;;;2.30;;
40170;SDS011;37650;52.790;18.268;2023-04-25T12:51:50;7.80;;;2.70;;
40170;SDS011;37650;52.790;18.268;2023-04-25T12:55:12;7.50;;;2.90;;
40170;SDS011;37650;52.790;18.268;2023-04-25T12:58:35;8.50;;;3.00;;
40170;SDS011;37650;52.790;18.268;2023-04-25T13:01:57;5.60;;;2.60;;
40170;SDS011;37650;52.790;18.268;2023-04-25T13:05:18;8.30;;;2.90;;
40170;SDS011;37650;52.790;18.268;2023-04-25T13:12:27;4.90;;;2.20;;
40170;SDS011;37650;52.790;18.268;2023-04-25T13:15:49;5.60;;;2.20;;
40170;SDS011;37650;52.790;18.268;2023-04-25T13:19:11;5.70;;;2.10;;
40170;SDS011;37650;52.790;18.268;2023-04-25T13:22:32;3.40;;;1.80;;
40170;SDS011;37650;52.790;18.268;2023-04-25T13:25:55;5.00;;;2.30;;
40170;SDS011;37650;52.790;18.268;2023-04-25T13:29:18;5.80;;;2.60;;
40170;SDS011;37650;52.790;18.268;2023-04-25T13:32:39;5.60;;;2.30;;
40170;SDS011;37650;52.790;18.268;2023-04-25T13:36:01;5.80;;;2.50;;
40170;SDS011;37650;52.790;18.268;2023-04-25T13:39:49;5.80;;;2.60;;
40170;SDS011;37650;52.790;18.268;2023-04-25T13:43:11;5.90;;;3.00;;
40170;SDS011;37650;52.790;18.268;2023-04-25T13:46:33;5.50;;;2.20;;
40170;SDS011;37650;52.790;18.268;2023-04-25T13:49:54;4.20;;;2.20;;
40170;SDS011;37650;52.790;18.268;2023-04-25T13:53:16;7.50;;;2.50;;
40170;SDS011;37650;52.790;18.268;2023-04-25T13:56:37;6.10;;;3.00;;
40170;SDS011;37650;52.790;18.268;2023-04-25T13:59:59;5.90;;;3.10;;
40170;SDS011;37650;52.790;18.268;2023-04-25T14:03:27;5.50;;;2.60;;
40170;SDS011;37650;52.790;18.268;2023-04-25T14:06:49;5.00;;;2.80;;
40170;SDS011;37650;52.790;18.268;2023-04-25T14:10:11;7.90;;;3.00;;
40170;SDS011;37650;52.790;18.268;2023-04-25T14:13:32;5.40;;;2.70;;
40170;SDS011;37650;52.790;18.268;2023-04-25T14:16:53;5.20;;;3.00;;
40170;SDS011;37650;52.790;18.268;2023-04-25T14:20:15;8.30;;;3.50;;
40170;SDS011;37650;52.790;18.268;2023-04-25T14:23:36;5.90;;;3.50;;
40170;SDS011;37650;52.790;18.268;2023-04-25T14:26:58;6.20;;;3.20;;
40170;SDS011;37650;52.790;18.268;2023-04-25T14:30:20;5.80;;;2.50;;
40170;SDS011;37650;52.790;18.268;2023-04-25T14:33:41;7.50;;;3.20;;
40170;SDS011;37650;52.790;18.268;2023-04-25T14:37:04;4.80;;;2.90;;
40170;SDS011;37650;52.790;18.268;2023-04-25T14:40:26;4.90;;;2.30;;
40170;SDS011;37650;52.790;18.268;2023-04-25T14:43:47;5.30;;;2.30;;
40170;SDS011;37650;52.790;18.268;2023-04-25T14:47:08;5.80;;;2.00;;
40170;SDS011;37650;52.790;18.268;2023-04-25T14:50:29;5.80;;;1.80;;
40170;SDS011;37650;52.790;18.268;2023-04-25T14:53:51;11.30;;;1.80;;
40170;SDS011;37650;52.790;18.268;2023-04-25T14:57:13;2.50;;;1.40;;
40170;SDS011;37650;52.790;18.268;2023-04-25T15:00:34;3.20;;;1.60;;
40170;SDS011;37650;52.790;18.268;2023-04-25T15:03:55;3.30;;;1.40;;
40170;SDS011;37650;52.790;18.268;2023-04-25T15:07:18;9.10;;;1.90;;
40170;SDS011;37650;52.790;18.268;2023-04-25T15:10:39;3.00;;;1.50;;
40170;SDS011;37650;52.790;18.268;2023-04-25T15:14:00;4.30;;;1.70;;
40170;SDS011;37650;52.790;18.268;2023-04-25T15:17:21;3.10;;;1.50;;
40170;SDS011;37650;52.790;18.268;2023-04-25T15:20:43;7.70;;;1.80;;
40170;SDS011;37650;52.790;18.268;2023-04-25T15:24:04;3.60;;;1.90;;
40170;SDS011;37650;52.790;18.268;2023-04-25T15:27:26;3.90;;;1.90;;
40170;SDS011;37650;52.790;18.268;2023-04-25T15:30:47;4.80;;;2.10;;
40170;SDS011;37650;52.790;18.268;2023-04-25T15:34:10;4.80;;;2.20;;
40170;SDS011;37650;52.790;18.268;2023-04-25T15:37:31;5.60;;;3.20;;
40170;SDS011;37650;52.790;18.268;2023-04-25T15:40:54;7.10;;;2.80;;
40170;SDS011;37650;52.790;18.268;2023-04-25T15:44:15;4.80;;;2.30;;
40170;SDS011;37650;52.790;18.268;2023-04-25T15:47:37;5.30;;;2.40;;
40170;SDS011;37650;52.790;18.268;2023-04-25T15:50:59;5.90;;;3.40;;
40170;SDS011;37650;52.790;18.268;2023-04-25T15:54:21;5.70;;;3.40;;
40170;SDS011;37650;52.790;18.268;2023-04-25T15:57:42;6.80;;;4.20;;
40170;SDS011;37650;52.790;18.268;2023-04-25T16:01:03;6.70;;;4.30;;
40170;SDS011;37650;52.790;18.268;2023-04-25T16:04:27;10.30;;;5.80;;
40170;SDS011;37650;52.790;18.268;2023-04-25T16:07:54;10.50;;;7.00;;
40170;SDS011;37650;52.790;18.268;2023-04-25T16:11:16;15.60;;;8.20;;
40170;SDS011;37650;52.790;18.268;2023-04-25T16:17:59;15.60;;;9.80;;
40170;SDS011;37650;52.790;18.268;2023-04-25T16:21:21;9.30;;;5.90;;
40170;SDS011;37650;52.790;18.268;2023-04-25T16:24:42;8.60;;;5.80;;
40170;SDS011;37650;52.790;18.268;2023-04-25T16:28:04;8.80;;;5.40;;
40170;SDS011;37650;52.790;18.268;2023-04-25T16:31:26;14.00;;;9.40;;
40170;SDS011;37650;52.790;18.268;2023-04-25T16:34:46;13.90;;;9.40;;
40170;SDS011;37650;52.790;18.268;2023-04-25T16:38:08;13.60;;;7.10;;
40170;SDS011;37650;52.790;18.268;2023-04-25T16:41:29;12.30;;;6.50;;
40170;SDS011;37650;52.790;18.268;2023-04-25T16:44:51;9.90;;;6.50;;
40170;SDS011;37650;52.790;18.268;2023-04-25T16:48:12;10.80;;;7.30;;
40170;SDS011;37650;52.790;18.268;2023-04-25T16:51:34;13.20;;;8.00;;
40170;SDS011;37650;52.790;18.268;2023-04-25T16:54:56;13.30;;;8.10;;
40170;SDS011;37650;52.790;18.268;2023-04-25T17:01:39;11.20;;;5.90;;
40170;SDS011;37650;52.790;18.268;2023-04-25T17:05:00;10.20;;;5.60;;
40170;SDS011;37650;52.790;18.268;2023-04-25T17:08:22;9.50;;;5.40;;
40170;SDS011;37650;52.790;18.268;2023-04-25T17:11:44;8.40;;;4.70;;
40170;SDS011;37650;52.790;18.268;2023-04-25T17:15:06;6.50;;;3.30;;
40170;SDS011;37650;52.790;18.268;2023-04-25T17:18:28;11.00;;;4.60;;
40170;SDS011;37650;52.790;18.268;2023-04-25T17:21:49;8.50;;;5.00;;
40170;SDS011;37650;52.790;18.268;2023-04-25T17:25:10;6.70;;;4.00;;
40170;SDS011;37650;52.790;18.268;2023-04-25T17:28:31;20.10;;;9.30;;
40170;SDS011;37650;52.790;18.268;2023-04-25T17:31:53;12.40;;;5.50;;
40170;SDS011;37650;52.790;18.268;2023-04-25T17:35:17;12.50;;;5.50;;
40170;SDS011;37650;52.790;18.268;2023-04-25T17:38:39;8.60;;;4.70;;
40170;SDS011;37650;52.790;18.268;2023-04-25T17:45:22;18.90;;;9.10;;
40170;SDS011;37650;52.790;18.268;2023-04-25T17:48:43;9.30;;;4.00;;
40170;SDS011;37650;52.790;18.268;2023-04-25T17:52:05;7.10;;;3.10;;
40170;SDS011;37650;52.790;18.268;2023-04-25T17:55:26;11.90;;;5.00;;
40170;SDS011;37650;52.790;18.268;2023-04-25T17:58:50;14.40;;;5.60;;
40170;SDS011;37650;52.790;18.268;2023-04-25T18:02:13;10.70;;;5.00;;
40170;SDS011;37650;52.790;18.268;2023-04-25T18:05:36;13.10;;;4.50;;
40170;SDS011;37650;52.790;18.268;2023-04-25T18:12:23;7.30;;;3.40;;
40170;SDS011;37650;52.790;18.268;2023-04-25T18:15:44;12.10;;;5.50;;
40170;SDS011;37650;52.790;18.268;2023-04-25T18:22:33;9.90;;;4.20;;
40170;SDS011;37650;52.790;18.268;2023-04-25T18:25:55;10.60;;;4.40;;
40170;SDS011;37650;52.790;18.268;2023-04-25T18:29:17;11.50;;;4.10;;
40170;SDS011;37650;52.790;18.268;2023-04-25T18:32:40;9.70;;;4.30;;
40170;SDS011;37650;52.790;18.268;2023-04-25T18:36:03;12.30;;;4.00;;
40170;SDS011;37650;52.790;18.268;2023-04-25T18:39:26;13.00;;;4.80;;
40170;SDS011;37650;52.790;18.268;2023-04-25T18:42:48;10.00;;;5.70;;
40170;SDS011;37650;52.790;18.268;2023-04-25T18:46:10;14.20;;;4.70;;
40170;SDS011;37650;52.790;18.268;2023-04-25T18:49:36;18.80;;;5.90;;
40170;SDS011;37650;52.790;18.268;2023-04-25T18:53:01;12.90;;;5.30;;
40170;SDS011;37650;52.790;18.268;2023-04-25T18:56:24;12.20;;;4.90;;
40170;SDS011;37650;52.790;18.268;2023-04-25T18:59:48;14.90;;;5.50;;
40170;SDS011;37650;52.790;18.268;2023-04-25T19:03:13;11.20;;;4.80;;
40170;SDS011;37650;52.790;18.268;2023-04-25T19:09:58;16.00;;;5.10;;
40170;SDS011;37650;52.790;18.268;2023-04-25T19:13:22;10.70;;;4.40;;
40170;SDS011;37650;52.790;18.268;2023-04-25T19:16:45;11.50;;;4.70;;
40170;SDS011;37650;52.790;18.268;2023-04-25T19:20:08;12.90;;;4.50;;
40170;SDS011;37650;52.790;18.268;2023-04-25T19:23:31;13.90;;;4.80;;
40170;SDS011;37650;52.790;18.268;2023-04-25T19:26:53;16.10;;;4.40;;
40170;SDS011;37650;52.790;18.268;2023-04-25T19:30:17;13.90;;;4.20;;
40170;SDS011;37650;52.790;18.268;2023-04-25T19:33:40;14.60;;;4.00;;
40170;SDS011;37650;52.790;18.268;2023-04-25T19:37:01;11.90;;;4.00;;
40170;SDS011;37650;52.790;18.268;2023-04-25T19:40:24;12.10;;;4.20;;
40170;SDS011;37650;52.790;18.268;2023-04-25T19:43:48;11.90;;;3.70;;
40170;SDS011;37650;52.790;18.268;2023-04-25T19:47:12;12.60;;;4.60;;
40170;SDS011;37650;52.790;18.268;2023-04-25T19:50:35;17.30;;;4.70;;
40170;SDS011;37650;52.790;18.268;2023-04-25T19:53:57;14.40;;;4.70;;
40170;SDS011;37650;52.790;18.268;2023-04-25T19:57:20;21.50;;;4.20;;
40170;SDS011;37650;52.790;18.268;2023-04-25T20:00:43;17.80;;;4.30;;
40170;SDS011;37650;52.790;18.268;2023-04-25T20:07:28;12.30;;;5.20;;
40170;SDS011;37650;52.790;18.268;2023-04-25T20:10:52;11.40;;;5.10;;
40170;SDS011;37650;52.790;18.268;2023-04-25T20:14:15;14.10;;;4.10;;
40170;SDS011;37650;52.790;18.268;2023-04-25T20:17:38;13.10;;;4.10;;
40170;SDS011;37650;52.790;18.268;2023-04-25T20:21:02;12.40;;;4.70;;
40170;SDS011;37650;52.790;18.268;2023-04-25T20:24:24;12.30;;;4.20;;
40170;SDS011;37650;52.790;18.268;2023-04-25T20:27:46;14.00;;;4.70;;
40170;SDS011;37650;52.790;18.268;2023-04-25T20:31:08;14.60;;;4.40;;
40170;SDS011;37650;52.790;18.268;2023-04-25T20:34:30;14.00;;;3.90;;
40170;SDS011;37650;52.790;18.268;2023-04-25T20:37:52;12.70;;;4.40;;
40170;SDS011;37650;52.790;18.268;2023-04-25T20:41:13;11.50;;;3.80;;
40170;SDS011;37650;52.790;18.268;2023-04-25T20:44:35;16.10;;;5.10;;
40170;SDS011;37650;52.790;18.268;2023-04-25T20:48:01;12.60;;;4.30;;
40170;SDS011;37650;52.790;18.268;2023-04-25T20:51:24;11.60;;;4.60;;
40170;SDS011;37650;52.790;18.268;2023-04-25T20:54:46;16.10;;;5.90;;
40170;SDS011;37650;52.790;18.268;2023-04-25T20:58:10;22.20;;;6.40;;
40170;SDS011;37650;52.790;18.268;2023-04-25T21:04:53;13.10;;;4.90;;
40170;SDS011;37650;52.790;18.268;2023-04-25T21:08:15;18.00;;;5.70;;
40170;SDS011;37650;52.790;18.268;2023-04-25T21:11:36;16.90;;;5.00;;